createdAt,value
2022-10-18T00:00:17.259Z,10.95
2022-10-18T00:01:16.679Z,10.98
2022-10-18T00:02:17.263Z,10.99
2022-10-18T00:03:16.928Z,11.00
2022-10-18T00:04:16.375Z,10.92
2022-10-18T00:05:16.835Z,10.85
2022-10-18T00:06:16.315Z,10.84
2022-10-18T00:07:16.775Z,10.82
2022-10-18T00:08:17.267Z,10.77
2022-10-18T00:09:16.724Z,10.77
2022-10-18T00:10:17.186Z,10.79
2022-10-18T00:11:16.632Z,10.81
2022-10-18T00:12:16.910Z,10.78
2022-10-18T00:13:16.346Z,10.71
2022-10-18T00:14:16.830Z,10.68
2022-10-18T00:15:17.251Z,10.70
2022-10-18T00:16:16.690Z,10.75
2022-10-18T00:17:17.143Z,10.71
2022-10-18T00:18:16.604Z,10.65
2022-10-18T00:19:17.061Z,10.77
2022-10-18T00:20:16.545Z,10.77
2022-10-18T00:21:17.021Z,10.81
2022-10-18T00:22:16.364Z,10.82
2022-10-18T00:23:16.832Z,10.82
2022-10-18T00:24:16.355Z,10.85
2022-10-18T00:25:16.872Z,10.84
2022-10-18T00:26:16.291Z,10.74
2022-10-18T00:27:16.708Z,10.68
2022-10-18T00:28:17.181Z,10.61
2022-10-18T00:29:16.606Z,10.57
2022-10-18T00:30:17.038Z,10.56
2022-10-18T00:31:16.478Z,10.57
2022-10-18T00:32:17.029Z,10.52
2022-10-18T00:33:16.495Z,10.52
2022-10-18T00:34:16.999Z,10.68
2022-10-18T00:35:16.466Z,10.70
2022-10-18T00:36:16.920Z,10.68
2022-10-18T00:37:16.375Z,10.70
2022-10-18T00:38:16.839Z,10.70
2022-10-18T00:39:17.304Z,10.70
2022-10-18T00:40:16.747Z,10.70
2022-10-18T00:41:17.177Z,10.67
2022-10-18T00:42:16.549Z,10.68
2022-10-18T00:43:16.967Z,10.64
2022-10-18T00:44:16.413Z,10.63
2022-10-18T00:45:16.852Z,10.65
2022-10-18T00:46:17.320Z,10.63
2022-10-18T00:47:16.772Z,10.71
2022-10-18T00:48:17.325Z,10.71
2022-10-18T00:49:16.807Z,10.65
2022-10-18T00:50:17.312Z,10.60
2022-10-18T00:51:16.801Z,10.54
2022-10-18T00:52:17.201Z,10.56
2022-10-18T00:53:16.656Z,10.64
2022-10-18T00:54:17.083Z,10.65
2022-10-18T00:55:16.526Z,10.58
2022-10-18T00:56:16.947Z,10.57
2022-10-18T00:57:16.369Z,10.58
2022-10-18T00:58:16.818Z,10.58
2022-10-18T00:59:17.238Z,10.60
2022-10-18T01:00:16.691Z,10.61
2022-10-18T01:01:17.147Z,10.61
2022-10-18T01:02:16.478Z,10.52
2022-10-18T01:03:16.986Z,10.52
2022-10-18T01:04:16.461Z,10.47
2022-10-18T01:05:16.946Z,10.44
2022-10-18T01:06:16.424Z,10.43
2022-10-18T01:07:16.909Z,10.39
2022-10-18T01:08:16.379Z,10.45
2022-10-18T01:09:16.853Z,10.48
2022-10-18T01:10:16.289Z,10.41
2022-10-18T01:11:16.717Z,10.45
2022-10-18T01:12:17.070Z,10.51
2022-10-18T01:13:16.539Z,10.51
2022-10-18T01:14:16.963Z,10.45
2022-10-18T01:15:16.428Z,10.43
2022-10-18T01:16:16.904Z,10.39
2022-10-18T01:17:16.358Z,10.36
2022-10-18T01:18:16.845Z,10.36
2022-10-18T01:19:16.306Z,10.37
2022-10-18T01:20:16.795Z,10.39
2022-10-18T01:21:17.255Z,10.41
2022-10-18T01:22:16.630Z,10.37
2022-10-18T01:23:17.064Z,10.29
2022-10-18T01:24:16.486Z,10.26
2022-10-18T01:25:16.920Z,10.23
2022-10-18T01:26:16.347Z,10.19
2022-10-18T01:27:16.764Z,10.14
2022-10-18T01:28:17.228Z,10.12
2022-10-18T01:29:16.676Z,10.12
2022-10-18T01:30:17.130Z,10.13
2022-10-18T01:31:16.592Z,10.20
2022-10-18T01:32:17.033Z,10.23
2022-10-18T01:33:16.563Z,10.21
2022-10-18T01:34:17.058Z,10.21
2022-10-18T01:35:16.542Z,10.17
2022-10-18T01:36:16.989Z,10.20
2022-10-18T01:37:16.414Z,10.20
2022-10-18T01:38:16.845Z,10.17
2022-10-18T01:39:17.335Z,10.20
2022-10-18T01:40:16.773Z,10.20
2022-10-18T01:41:17.207Z,10.16
2022-10-18T01:42:16.573Z,10.12
2022-10-18T01:43:17.003Z,10.05
2022-10-18T01:44:16.489Z,9.98
2022-10-18T01:45:16.980Z,9.98
2022-10-18T01:46:16.422Z,9.99
2022-10-18T01:47:16.886Z,9.96
2022-10-18T01:48:16.341Z,9.93
2022-10-18T01:49:16.821Z,9.89
2022-10-18T01:50:17.291Z,9.85
2022-10-18T01:51:16.728Z,9.88
2022-10-18T01:52:17.255Z,9.86
2022-10-18T01:53:16.693Z,9.86
2022-10-18T01:54:17.118Z,9.89
2022-10-18T01:55:16.560Z,9.88
2022-10-18T01:56:17.016Z,9.89
2022-10-18T01:57:16.435Z,9.96
2022-10-18T01:58:16.883Z,9.99
2022-10-18T01:59:16.369Z,10.06
2022-10-18T02:00:16.824Z,10.08
2022-10-18T02:01:17.288Z,10.02
2022-10-18T02:02:16.682Z,10.06
2022-10-18T02:03:17.172Z,10.03
2022-10-18T02:04:16.643Z,10.05
2022-10-18T02:05:17.098Z,10.08
2022-10-18T02:06:16.524Z,10.05
2022-10-18T02:07:16.950Z,10.01
2022-10-18T02:08:22.698Z,9.99
2022-10-18T02:09:16.313Z,10.01
2022-10-18T02:10:16.763Z,9.98
2022-10-18T02:11:17.209Z,10.06
2022-10-18T02:12:16.565Z,10.03
2022-10-18T02:13:17.030Z,9.98
2022-10-18T02:14:16.512Z,9.95
2022-10-18T02:15:16.984Z,9.96
2022-10-18T02:16:16.485Z,10.01
2022-10-18T02:17:16.950Z,10.06
2022-10-18T02:18:16.422Z,10.03
2022-10-18T02:19:16.988Z,10.03
2022-10-18T02:20:16.509Z,10.03
2022-10-18T02:21:16.984Z,10.16
2022-10-18T02:22:16.306Z,10.16
2022-10-18T02:23:16.743Z,10.19
2022-10-18T02:24:17.176Z,10.24
2022-10-18T02:25:16.596Z,10.23
2022-10-18T02:26:17.052Z,10.24
2022-10-18T02:27:16.499Z,10.27
2022-10-18T02:28:17.010Z,10.23
2022-10-18T02:29:16.560Z,10.23
2022-10-18T02:30:17.053Z,10.20
2022-10-18T02:31:16.529Z,10.21
2022-10-18T02:32:16.981Z,10.20
2022-10-18T02:33:16.433Z,10.21
2022-10-18T02:34:16.900Z,10.21
2022-10-18T02:35:16.321Z,10.23
2022-10-18T02:36:16.783Z,10.26
2022-10-18T02:37:17.263Z,10.26
2022-10-18T02:38:16.797Z,10.17
2022-10-18T02:39:17.228Z,10.17
2022-10-18T02:40:16.659Z,10.17
2022-10-18T02:41:17.113Z,10.16
2022-10-18T02:42:16.427Z,10.20
2022-10-18T02:43:16.884Z,10.19
2022-10-18T02:44:16.370Z,10.13
2022-10-18T02:45:16.845Z,10.06
2022-10-18T02:46:16.370Z,10.05
2022-10-18T02:47:16.936Z,10.05
2022-10-18T02:48:16.373Z,10.01
2022-10-18T02:49:16.804Z,9.99
2022-10-18T02:50:17.240Z,9.95
2022-10-18T02:51:16.693Z,9.93
2022-10-18T02:52:17.194Z,9.96
2022-10-18T02:53:16.611Z,9.93
2022-10-18T02:54:17.059Z,10.02
2022-10-18T02:55:16.549Z,10.06
2022-10-18T02:56:17.053Z,9.99
2022-10-18T02:57:16.535Z,9.95
2022-10-18T02:58:17.027Z,9.91
2022-10-18T02:59:16.481Z,9.89
2022-10-18T03:00:16.944Z,9.86
2022-10-18T03:01:16.457Z,9.89
2022-10-18T03:02:16.749Z,9.88
2022-10-18T03:03:17.230Z,9.85
2022-10-18T03:04:16.687Z,9.82
2022-10-18T03:05:17.267Z,9.82
2022-10-18T03:06:16.732Z,9.80
2022-10-18T03:07:17.165Z,9.78
2022-10-18T03:08:16.586Z,9.76
2022-10-18T03:09:17.008Z,9.74
2022-10-18T03:10:16.464Z,9.71
2022-10-18T03:11:16.944Z,9.78
2022-10-18T03:12:17.263Z,9.81
2022-10-18T03:13:16.769Z,9.82
2022-10-18T03:14:16.333Z,9.78
2022-10-18T03:15:16.809Z,9.68
2022-10-18T03:16:17.298Z,9.66
2022-10-18T03:17:16.767Z,9.66
2022-10-18T03:18:17.248Z,9.65
2022-10-18T03:19:16.675Z,9.68
2022-10-18T03:20:17.107Z,9.66
2022-10-18T03:21:16.552Z,9.66
2022-10-18T03:22:17.109Z,9.69
2022-10-18T03:23:16.642Z,9.69
2022-10-18T03:24:17.085Z,9.75
2022-10-18T03:25:16.545Z,9.75
2022-10-18T03:26:17.016Z,9.76
2022-10-18T03:27:16.478Z,9.68
2022-10-18T03:28:16.927Z,9.66
2022-10-18T03:29:16.375Z,9.62
2022-10-18T03:30:16.860Z,9.61
2022-10-18T03:31:16.328Z,9.58
2022-10-18T03:32:16.624Z,9.59
2022-10-18T03:33:17.044Z,9.61
2022-10-18T03:34:16.467Z,9.61
2022-10-18T03:35:16.910Z,9.59
2022-10-18T03:36:16.328Z,9.61
2022-10-18T03:37:16.772Z,9.61
2022-10-18T03:38:17.216Z,9.61
2022-10-18T03:39:16.658Z,9.61
2022-10-18T03:40:17.131Z,9.58
2022-10-18T03:41:16.589Z,9.61
2022-10-18T03:42:16.959Z,9.55
2022-10-18T03:43:16.457Z,9.53
2022-10-18T03:44:16.958Z,9.44
2022-10-18T03:45:16.436Z,9.41
2022-10-18T03:46:16.892Z,9.40
2022-10-18T03:47:16.310Z,9.43
2022-10-18T03:48:16.740Z,9.43
2022-10-18T03:49:17.206Z,9.38
2022-10-18T03:50:16.632Z,9.43
2022-10-18T03:51:17.056Z,9.50
2022-10-18T03:52:16.424Z,9.59
2022-10-18T03:53:16.881Z,9.61
2022-10-18T03:54:16.349Z,9.61
2022-10-18T03:55:16.818Z,9.61
2022-10-18T03:56:17.276Z,9.66
2022-10-18T03:57:16.791Z,9.69
2022-10-18T03:58:17.320Z,9.75
2022-10-18T03:59:16.775Z,9.71
2022-10-18T04:00:17.254Z,9.69
2022-10-18T04:01:16.744Z,9.68
2022-10-18T04:02:17.192Z,9.65
2022-10-18T04:03:16.639Z,9.64
2022-10-18T04:04:17.108Z,9.65
2022-10-18T04:05:16.557Z,9.58
2022-10-18T04:06:16.998Z,9.55
2022-10-18T04:07:16.452Z,9.54
2022-10-18T04:08:16.912Z,9.54
2022-10-18T04:09:16.412Z,9.53
2022-10-18T04:10:16.947Z,9.53
2022-10-18T04:11:16.411Z,9.55
2022-10-18T04:12:16.733Z,9.57
2022-10-18T04:13:17.282Z,9.57
2022-10-18T04:14:16.788Z,9.57
2022-10-18T04:15:17.251Z,9.58
2022-10-18T04:16:16.728Z,9.59
2022-10-18T04:17:17.159Z,9.64
2022-10-18T04:18:16.580Z,9.62
2022-10-18T04:19:17.028Z,9.69
2022-10-18T04:20:16.490Z,9.69
2022-10-18T04:21:16.911Z,9.72
2022-10-18T04:22:17.313Z,9.74
2022-10-18T04:23:16.795Z,9.80
2022-10-18T04:24:17.266Z,9.80
2022-10-18T04:25:16.720Z,9.78
2022-10-18T04:26:17.178Z,9.78
2022-10-18T04:27:16.653Z,9.76
2022-10-18T04:28:17.129Z,9.81
2022-10-18T04:29:16.570Z,9.84
2022-10-18T04:30:17.003Z,9.84
2022-10-18T04:31:16.424Z,9.82
2022-10-18T04:32:17.035Z,9.82
2022-10-18T04:33:16.487Z,9.82
2022-10-18T04:34:16.926Z,9.86
2022-10-18T04:35:16.359Z,9.84
2022-10-18T04:36:16.845Z,9.88
2022-10-18T04:37:16.308Z,9.91
2022-10-18T04:38:16.782Z,9.92
2022-10-18T04:39:17.257Z,10.05
2022-10-18T04:40:16.763Z,10.03
2022-10-18T04:41:17.246Z,10.02
2022-10-18T04:42:16.782Z,9.99
2022-10-18T04:43:17.283Z,10.01
2022-10-18T04:44:16.748Z,10.02
2022-10-18T04:45:17.174Z,10.01
2022-10-18T04:46:16.611Z,10.01
2022-10-18T04:47:17.060Z,10.05
2022-10-18T04:48:16.489Z,10.03
2022-10-18T04:49:16.939Z,10.09
2022-10-18T04:50:16.367Z,10.13
2022-10-18T04:51:16.840Z,10.13
2022-10-18T04:52:16.834Z,10.12
2022-10-18T04:53:16.289Z,10.10
2022-10-18T04:54:16.875Z,10.17
2022-10-18T04:55:16.340Z,10.14
2022-10-18T04:56:16.822Z,10.16
2022-10-18T04:57:17.296Z,10.16
2022-10-18T04:58:16.756Z,10.17
2022-10-18T04:59:17.202Z,10.14
2022-10-18T05:00:16.623Z,10.13
2022-10-18T05:01:17.107Z,10.16
2022-10-18T05:02:16.713Z,10.19
2022-10-18T05:03:17.175Z,10.19
2022-10-18T05:04:16.651Z,10.19
2022-10-18T05:05:17.068Z,10.21
2022-10-18T05:06:16.533Z,10.23
2022-10-18T05:07:17.025Z,10.27
2022-10-18T05:08:16.483Z,10.26
2022-10-18T05:09:16.970Z,10.26
2022-10-18T05:10:16.454Z,10.29
2022-10-18T05:11:16.920Z,10.31
2022-10-18T05:12:16.560Z,10.39
2022-10-18T05:13:17.010Z,10.40
2022-10-18T05:14:16.465Z,10.39
2022-10-18T05:15:16.891Z,10.36
2022-10-18T05:16:16.328Z,10.37
2022-10-18T05:17:16.768Z,10.36
2022-10-18T05:18:17.242Z,10.37
2022-10-18T05:19:16.677Z,10.41
2022-10-18T05:20:17.161Z,10.41
2022-10-18T05:21:16.638Z,10.40
2022-10-18T05:22:16.614Z,10.43
2022-10-18T05:23:17.077Z,10.41
2022-10-18T05:24:16.542Z,10.41
2022-10-18T05:25:17.007Z,10.44
2022-10-18T05:26:16.496Z,10.43
2022-10-18T05:27:17.002Z,10.44
2022-10-18T05:28:34.938Z,10.45
2022-10-18T05:29:17.163Z,10.47
2022-10-18T05:30:16.829Z,10.44
2022-10-18T05:31:17.252Z,10.44
2022-10-18T05:32:17.136Z,10.44
2022-10-18T05:33:16.565Z,10.41
2022-10-18T05:34:16.989Z,10.43
2022-10-18T05:35:16.449Z,10.41
2022-10-18T05:36:16.925Z,10.43
2022-10-18T05:37:16.385Z,10.39
2022-10-18T05:38:16.855Z,10.41
2022-10-18T05:39:16.302Z,10.40
2022-10-18T05:40:16.809Z,10.39
2022-10-18T05:41:17.271Z,10.39
2022-10-18T05:42:16.780Z,10.40
2022-10-18T05:43:17.238Z,10.43
2022-10-18T05:44:16.707Z,10.41
2022-10-18T05:45:17.128Z,10.45
2022-10-18T05:46:16.587Z,10.48
2022-10-18T05:47:17.016Z,10.50
2022-10-18T05:48:16.433Z,10.52
2022-10-18T05:49:16.891Z,10.57
2022-10-18T05:50:16.362Z,10.57
2022-10-18T05:51:16.824Z,10.60
2022-10-18T05:52:17.160Z,10.61
2022-10-18T05:53:31.754Z,10.64
2022-10-18T05:54:17.148Z,10.67
2022-10-18T05:55:16.636Z,10.74
2022-10-18T05:56:17.105Z,10.77
2022-10-18T05:57:16.557Z,10.77
2022-10-18T05:58:17.011Z,10.75
2022-10-18T05:59:16.453Z,10.77
2022-10-18T06:00:16.887Z,10.75
2022-10-18T06:01:16.317Z,10.75
2022-10-18T06:02:16.729Z,10.75
2022-10-18T06:03:17.300Z,10.77
2022-10-18T06:04:16.824Z,10.75
2022-10-18T06:05:16.289Z,10.78
2022-10-18T06:06:16.761Z,10.84
2022-10-18T06:07:17.224Z,10.94
2022-10-18T06:08:16.710Z,10.98
2022-10-18T06:09:17.152Z,10.99
2022-10-18T06:10:16.585Z,11.02
2022-10-18T06:11:17.061Z,11.02
2022-10-18T06:12:16.657Z,11.05
2022-10-18T06:13:17.079Z,11.06
2022-10-18T06:14:16.526Z,11.07
2022-10-18T06:15:16.971Z,11.12
2022-10-18T06:16:16.575Z,11.12
2022-10-18T06:17:17.225Z,11.13
2022-10-18T06:18:16.688Z,11.15
2022-10-18T06:19:17.176Z,11.13
2022-10-18T06:20:16.666Z,11.15
2022-10-18T06:21:17.170Z,11.16
2022-10-18T06:22:16.997Z,11.19
2022-10-18T06:23:16.481Z,11.17
2022-10-18T06:24:16.918Z,11.17
2022-10-18T06:25:16.423Z,11.20
2022-10-18T06:26:16.880Z,11.22
2022-10-18T06:27:16.301Z,11.23
2022-10-18T06:28:16.734Z,11.27
2022-10-18T06:29:17.160Z,11.26
2022-10-18T06:30:16.606Z,11.27
2022-10-18T06:31:17.067Z,11.31
2022-10-18T06:32:16.874Z,11.31
2022-10-18T06:33:16.348Z,11.29
2022-10-18T06:34:16.825Z,11.25
2022-10-18T06:35:17.324Z,11.30
2022-10-18T06:36:16.799Z,11.34
2022-10-18T06:37:17.253Z,11.37
2022-10-18T06:38:16.811Z,11.46
2022-10-18T06:39:17.251Z,11.47
2022-10-18T06:40:16.673Z,11.50
2022-10-18T06:41:17.108Z,11.53
2022-10-18T06:42:17.977Z,11.55
2022-10-18T06:43:20.856Z,11.58
2022-10-18T06:44:17.076Z,11.63
2022-10-18T06:45:16.503Z,11.64
2022-10-18T06:46:16.976Z,11.67
2022-10-18T06:47:16.546Z,11.70
2022-10-18T06:48:17.126Z,11.72
2022-10-18T06:49:18.331Z,11.71
2022-10-18T06:50:16.872Z,11.67
2022-10-18T06:51:16.316Z,11.68
2022-10-18T06:52:16.332Z,11.64
2022-10-18T06:53:16.795Z,11.64
2022-10-18T06:54:18.288Z,11.65
2022-10-18T06:55:16.565Z,11.64
2022-10-18T06:56:17.008Z,11.65
2022-10-18T06:57:16.464Z,11.63
2022-10-18T06:58:16.891Z,11.67
2022-10-18T06:59:16.363Z,11.65
2022-10-18T07:00:16.820Z,11.70
2022-10-18T07:01:17.366Z,11.70
2022-10-18T07:02:17.148Z,11.80
2022-10-18T07:03:16.599Z,11.84
2022-10-18T07:04:17.069Z,11.85
2022-10-18T07:05:16.548Z,11.85
2022-10-18T07:06:17.023Z,11.89
2022-10-18T07:07:16.469Z,11.89
2022-10-18T07:08:16.893Z,11.93
2022-10-18T07:09:16.347Z,12.01
2022-10-18T07:10:16.771Z,12.06
2022-10-18T07:11:17.211Z,12.12
2022-10-18T07:12:16.648Z,12.13
2022-10-18T07:13:31.834Z,12.18
2022-10-18T07:14:16.679Z,12.20
2022-10-18T07:15:17.150Z,12.28
2022-10-18T07:16:18.102Z,12.29
2022-10-18T07:17:17.292Z,12.29
2022-10-18T07:18:16.822Z,12.28
2022-10-18T07:19:17.304Z,12.30
2022-10-18T07:20:16.844Z,12.32
2022-10-18T07:21:16.319Z,12.36
2022-10-18T07:22:16.814Z,12.33
2022-10-18T07:23:17.324Z,12.28
2022-10-18T07:24:16.762Z,12.28
2022-10-18T07:25:17.222Z,12.25
2022-10-18T07:26:16.662Z,12.22
2022-10-18T07:27:17.113Z,12.23
2022-10-18T07:28:16.579Z,12.19
2022-10-18T07:29:17.012Z,12.18
2022-10-18T07:30:16.468Z,12.18
2022-10-18T07:31:16.937Z,12.16
2022-10-18T07:32:16.621Z,12.15
2022-10-18T07:33:17.113Z,12.16
2022-10-18T07:34:16.585Z,12.20
2022-10-18T07:35:17.084Z,12.19
2022-10-18T07:36:16.589Z,12.20
2022-10-18T07:37:17.121Z,12.23
2022-10-18T07:38:16.587Z,12.25
2022-10-18T07:39:17.015Z,12.23
2022-10-18T07:40:16.452Z,12.23
2022-10-18T07:41:16.878Z,12.22
2022-10-18T07:42:16.787Z,12.23
2022-10-18T07:43:17.277Z,12.25
2022-10-18T07:44:16.708Z,12.23
2022-10-18T07:45:17.154Z,12.26
2022-10-18T07:46:16.690Z,12.26
2022-10-18T07:47:17.152Z,12.28
2022-10-18T07:48:16.652Z,12.28
2022-10-18T07:49:17.133Z,12.33
2022-10-18T07:50:16.629Z,12.32
2022-10-18T07:51:17.091Z,12.35
2022-10-18T07:52:17.007Z,12.36
2022-10-18T07:53:16.499Z,12.40
2022-10-18T07:54:16.953Z,12.46
2022-10-18T07:55:16.410Z,12.44
2022-10-18T07:56:16.949Z,12.46
2022-10-18T07:57:16.378Z,12.49
2022-10-18T07:58:16.814Z,12.56
2022-10-18T07:59:17.256Z,12.60
2022-10-18T08:00:16.711Z,12.63
2022-10-18T08:01:17.226Z,12.66
2022-10-18T08:02:16.665Z,12.70
2022-10-18T08:03:17.185Z,12.74
2022-10-18T08:04:16.710Z,12.75
2022-10-18T08:05:17.197Z,12.78
2022-10-18T08:06:16.670Z,12.85
2022-10-18T08:07:17.120Z,12.89
2022-10-18T08:08:16.546Z,12.91
2022-10-18T08:09:16.971Z,12.99
2022-10-18T08:10:16.440Z,13.01
2022-10-18T08:11:16.897Z,13.11
2022-10-18T08:12:16.932Z,13.21
2022-10-18T08:13:16.357Z,13.23
2022-10-18T08:14:16.810Z,13.27
2022-10-18T08:15:17.282Z,13.30
2022-10-18T08:16:16.747Z,13.39
2022-10-18T08:17:17.224Z,13.49
2022-10-18T08:18:16.682Z,13.46
2022-10-18T08:19:17.166Z,13.54
2022-10-18T08:20:29.717Z,13.58
2022-10-18T08:21:16.480Z,13.65
2022-10-18T08:22:16.677Z,13.68
2022-10-18T08:23:17.097Z,13.70
2022-10-18T08:24:16.539Z,13.74
2022-10-18T08:25:16.999Z,13.85
2022-10-18T08:26:16.438Z,13.92
2022-10-18T08:27:16.864Z,13.94
2022-10-18T08:28:16.303Z,13.95
2022-10-18T08:29:24.061Z,13.95
2022-10-18T08:30:16.666Z,14.00
2022-10-18T08:31:17.172Z,14.07
2022-10-18T08:32:16.832Z,14.09
2022-10-18T08:33:16.336Z,14.23
2022-10-18T08:34:19.633Z,14.26
2022-10-18T08:35:16.491Z,14.25
2022-10-18T08:36:16.955Z,14.35
2022-10-18T08:37:16.400Z,14.39
2022-10-18T08:38:18.117Z,14.41
2022-10-18T08:39:16.347Z,14.47
2022-10-18T08:40:16.811Z,14.49
2022-10-18T08:41:17.282Z,14.55
2022-10-18T08:42:17.033Z,14.60
2022-10-18T08:43:20.791Z,14.62
2022-10-18T08:44:16.343Z,14.68
2022-10-18T08:45:29.972Z,14.74
2022-10-18T08:46:16.378Z,14.90
2022-10-18T08:47:16.848Z,15.04
2022-10-18T08:48:16.370Z,15.12
2022-10-18T08:49:16.865Z,15.21
2022-10-18T08:50:16.323Z,15.25
2022-10-18T08:51:16.787Z,15.31
2022-10-18T08:52:16.449Z,15.47
2022-10-18T08:53:16.878Z,15.49
2022-10-18T08:54:16.328Z,15.56
2022-10-18T08:55:16.759Z,15.59
2022-10-18T08:56:17.248Z,15.71
2022-10-18T08:57:16.735Z,15.73
2022-10-18T08:58:17.264Z,15.76
2022-10-18T08:59:16.735Z,15.81
2022-10-18T09:00:17.272Z,15.91
2022-10-18T09:01:16.784Z,15.94
2022-10-18T09:02:16.750Z,16.00
2022-10-18T09:03:16.431Z,16.07
2022-10-18T09:04:17.118Z,16.15
2022-10-18T09:05:16.579Z,16.29
2022-10-18T09:06:18.683Z,16.32
2022-10-18T09:07:16.955Z,16.35
2022-10-18T09:08:16.390Z,16.46
2022-10-18T09:09:16.849Z,16.55
2022-10-18T09:10:16.284Z,16.50
2022-10-18T09:11:16.731Z,16.50
2022-10-18T09:12:16.442Z,16.57
2022-10-18T09:13:16.936Z,16.55
2022-10-18T09:14:16.486Z,16.60
2022-10-18T09:15:16.951Z,16.63
2022-10-18T09:16:16.416Z,16.90
2022-10-18T09:17:16.886Z,16.87
2022-10-18T09:18:16.375Z,16.95
2022-10-18T09:19:16.819Z,16.97
2022-10-18T09:20:17.280Z,17.01
2022-10-18T09:21:16.800Z,17.11
2022-10-18T09:22:16.320Z,17.19
2022-10-18T09:23:16.747Z,17.24
2022-10-18T09:24:17.182Z,17.33
2022-10-18T09:25:16.608Z,17.39
2022-10-18T09:26:17.076Z,17.48
2022-10-18T09:27:16.549Z,17.52
2022-10-18T09:28:17.007Z,17.57
2022-10-18T09:29:16.549Z,17.66
2022-10-18T09:30:16.331Z,17.70
2022-10-18T09:31:16.794Z,17.77
2022-10-18T09:32:16.657Z,17.86
2022-10-18T09:33:17.141Z,17.81
2022-10-18T09:34:16.569Z,17.81
2022-10-18T09:35:16.998Z,17.76
2022-10-18T09:36:16.427Z,17.73
2022-10-18T09:37:16.877Z,17.74
2022-10-18T09:38:16.335Z,17.97
2022-10-18T09:39:16.845Z,17.97
2022-10-18T09:40:18.875Z,18.14
2022-10-18T09:41:16.733Z,18.21
2022-10-18T09:42:16.480Z,18.27
2022-10-18T09:43:16.946Z,18.25
2022-10-18T09:44:16.425Z,18.18
2022-10-18T09:45:16.902Z,18.15
2022-10-18T09:46:16.378Z,18.29
2022-10-18T09:47:17.188Z,18.31
2022-10-18T09:48:16.726Z,18.39
2022-10-18T09:49:17.158Z,18.44
2022-10-18T09:50:16.589Z,18.49
2022-10-18T09:51:17.018Z,18.55
2022-10-18T09:52:17.044Z,18.49
2022-10-18T09:53:16.480Z,18.52
2022-10-18T09:54:16.901Z,18.51
2022-10-18T09:55:16.356Z,18.51
2022-10-18T09:56:16.861Z,18.63
2022-10-18T09:57:16.330Z,18.66
2022-10-18T09:58:16.793Z,18.69
2022-10-18T09:59:17.245Z,18.86
2022-10-18T10:00:16.737Z,18.88
2022-10-18T10:01:17.220Z,18.75
2022-10-18T10:02:17.067Z,18.84
2022-10-18T10:03:16.601Z,18.86
2022-10-18T10:04:17.068Z,18.94
2022-10-18T10:05:16.501Z,18.75
2022-10-18T10:06:16.940Z,18.82
2022-10-18T10:07:16.372Z,18.98
2022-10-18T10:08:16.796Z,18.95
2022-10-18T10:09:17.224Z,18.87
2022-10-18T10:10:16.688Z,18.82
2022-10-18T10:11:17.171Z,18.93
2022-10-18T10:12:16.961Z,18.98
2022-10-18T10:13:16.444Z,19.00
2022-10-18T10:15:16.401Z,19.05
2022-10-18T10:16:16.883Z,19.07
2022-10-18T10:17:16.335Z,19.01
2022-10-18T10:18:16.772Z,19.08
2022-10-18T10:19:17.206Z,19.13
2022-10-18T10:20:16.642Z,19.24
2022-10-18T10:21:17.071Z,19.22
2022-10-18T10:22:16.845Z,19.15
2022-10-18T10:24:16.756Z,19.27
2022-10-18T10:25:17.267Z,19.17
2022-10-18T10:26:16.744Z,19.15
2022-10-18T10:27:17.236Z,19.20
2022-10-18T10:28:16.698Z,19.24
2022-10-18T10:29:17.466Z,19.18
2022-10-18T10:30:17.195Z,19.14
2022-10-18T10:31:16.655Z,19.25
2022-10-18T10:32:16.483Z,19.30
2022-10-18T10:33:16.983Z,19.31
2022-10-18T10:34:16.435Z,19.34
2022-10-18T10:35:21.700Z,19.44
2022-10-18T10:36:16.341Z,19.41
2022-10-18T10:37:16.818Z,19.38
2022-10-18T10:38:17.282Z,19.32
2022-10-18T10:39:16.754Z,19.31
2022-10-18T10:40:18.666Z,19.34
2022-10-18T10:41:16.469Z,19.31
2022-10-18T10:42:16.559Z,19.27
2022-10-18T10:43:32.813Z,19.30
2022-10-18T10:44:16.577Z,19.30
2022-10-18T10:45:17.036Z,19.31
2022-10-18T10:46:16.484Z,19.34
2022-10-18T10:47:16.919Z,19.35
2022-10-18T10:48:16.354Z,19.39
2022-10-18T10:49:38.311Z,19.38
2022-10-18T10:50:16.624Z,19.28
2022-10-18T10:51:17.062Z,19.32
2022-10-18T10:52:26.642Z,19.28
2022-10-18T10:53:16.902Z,19.27
2022-10-18T10:54:16.371Z,19.27
2022-10-18T10:55:33.945Z,19.28
2022-10-18T10:56:16.707Z,19.17
2022-10-18T10:57:17.151Z,19.01
2022-10-18T10:58:16.608Z,19.08
2022-10-18T10:59:17.082Z,19.13
2022-10-18T11:00:16.555Z,19.17
2022-10-18T11:01:17.049Z,19.11
2022-10-18T11:02:16.524Z,19.14
2022-10-18T11:03:28.319Z,19.10
2022-10-18T11:04:16.497Z,19.05
2022-10-18T11:05:17.098Z,18.95
2022-10-18T11:06:16.515Z,18.90
2022-10-18T11:07:16.949Z,18.83
2022-10-18T11:08:19.398Z,18.75
2022-10-18T11:09:16.347Z,18.75
2022-10-18T11:10:16.794Z,18.63
2022-10-18T11:11:18.118Z,18.52
2022-10-18T11:12:16.987Z,18.39
2022-10-18T11:13:16.444Z,18.32
2022-10-18T11:14:25.557Z,18.17
2022-10-18T11:15:16.548Z,18.12
2022-10-18T11:16:17.000Z,18.03
2022-10-18T11:17:16.421Z,17.97
2022-10-18T11:18:16.889Z,17.86
2022-10-18T11:19:16.324Z,17.59
2022-10-18T11:20:16.766Z,17.52
2022-10-18T11:21:17.219Z,17.19
2022-10-18T11:22:16.976Z,17.10
2022-10-18T11:23:16.430Z,17.07
2022-10-18T11:24:16.895Z,17.04
2022-10-18T11:25:16.382Z,16.91
2022-10-18T11:26:16.849Z,16.90
2022-10-18T11:27:16.323Z,16.90
2022-10-18T11:28:16.816Z,16.84
2022-10-18T11:29:17.289Z,16.73
2022-10-18T11:30:16.734Z,16.80
2022-10-18T11:31:17.168Z,16.81
2022-10-18T11:32:17.175Z,16.91
2022-10-18T11:33:16.616Z,16.94
2022-10-18T11:34:17.054Z,16.97
2022-10-18T11:35:16.565Z,16.95
2022-10-18T11:36:17.065Z,16.97
2022-10-18T11:37:27.540Z,16.98
2022-10-18T11:38:16.668Z,17.07
2022-10-18T11:39:17.139Z,17.19
2022-10-18T11:40:16.620Z,17.25
2022-10-18T11:41:17.099Z,17.31
2022-10-18T11:42:16.731Z,17.35
2022-10-18T11:43:17.271Z,17.42
2022-10-18T11:44:16.739Z,17.39
2022-10-18T11:45:17.262Z,17.22
2022-10-18T11:46:16.837Z,17.14
2022-10-18T11:47:16.321Z,17.24
2022-10-18T11:48:16.770Z,17.25
2022-10-18T11:49:17.222Z,17.26
2022-10-18T11:50:16.647Z,17.25
2022-10-18T11:51:17.085Z,17.26
2022-10-18T11:52:16.772Z,17.22
2022-10-18T11:53:17.277Z,17.22
2022-10-18T11:54:16.905Z,17.14
2022-10-18T11:55:16.398Z,17.17
2022-10-18T11:56:16.937Z,17.14
2022-10-18T11:57:16.413Z,17.13
2022-10-18T11:58:16.892Z,17.13
2022-10-18T11:59:16.327Z,17.11
2022-10-18T12:00:16.820Z,17.17
2022-10-18T12:01:16.500Z,17.14
2022-10-18T12:02:17.237Z,17.19
2022-10-18T12:03:16.799Z,17.17
2022-10-18T12:04:17.229Z,17.21
2022-10-18T12:05:24.681Z,17.13
2022-10-18T12:06:16.627Z,17.13
2022-10-18T12:07:19.830Z,17.21
2022-10-18T12:08:17.256Z,17.29
2022-10-18T12:09:16.745Z,17.39
2022-10-18T12:10:18.823Z,17.42
2022-10-18T12:11:16.826Z,17.53
2022-10-18T12:12:16.440Z,17.54
2022-10-18T12:13:16.930Z,17.42
2022-10-18T12:14:16.361Z,17.41
2022-10-18T12:15:16.788Z,17.43
2022-10-18T12:16:17.238Z,17.57
2022-10-18T12:17:39.245Z,17.52
2022-10-18T12:18:17.163Z,17.57
2022-10-18T12:19:16.632Z,17.49
2022-10-18T12:20:17.080Z,17.59
2022-10-18T12:21:16.603Z,17.63
2022-10-18T12:22:16.913Z,17.53
2022-10-18T12:23:16.409Z,17.56
2022-10-18T12:24:16.989Z,17.56
2022-10-18T12:25:16.487Z,17.60
2022-10-18T12:26:16.972Z,17.79
2022-10-18T12:27:16.448Z,17.79
2022-10-18T12:28:16.898Z,17.68
2022-10-18T12:29:16.324Z,17.65
2022-10-18T12:30:16.758Z,17.63
2022-10-18T12:31:17.189Z,17.70
2022-10-18T12:32:16.813Z,17.70
2022-10-18T12:33:27.570Z,17.66
2022-10-18T12:34:16.360Z,17.72
2022-10-18T12:35:16.819Z,17.73
2022-10-18T12:36:17.285Z,17.72
2022-10-18T12:37:16.750Z,17.76
2022-10-18T12:38:17.226Z,17.86
2022-10-18T12:39:17.091Z,17.76
2022-10-18T12:40:18.720Z,17.59
2022-10-18T12:41:17.006Z,17.66
2022-10-18T12:42:17.069Z,17.66
2022-10-18T12:43:16.538Z,17.54
2022-10-18T12:44:16.970Z,17.53
2022-10-18T12:45:16.407Z,17.56
2022-10-18T12:46:16.832Z,17.53
2022-10-18T12:47:17.272Z,17.56
2022-10-18T12:48:16.707Z,17.57
2022-10-18T12:49:17.172Z,17.53
2022-10-18T12:50:16.652Z,17.49
2022-10-18T12:51:17.120Z,17.52
2022-10-18T12:52:16.739Z,17.50
2022-10-18T12:53:17.261Z,17.49
2022-10-18T12:54:16.761Z,17.46
2022-10-18T12:55:17.804Z,17.41
2022-10-18T12:56:18.336Z,17.46
2022-10-18T12:57:16.493Z,17.45
2022-10-18T12:58:16.931Z,17.46